EGSC METAR and TAF | Updated Today

EGSC METAR

Cambridge Airport

Observation time: 5:26 hr. ago

EGSC 061550Z 23013KT 9999 FEW045 18/09 Q1026

Need help? Read our tutorial on how to read METARs or read the parsed version below.

Cambridge Airport (EGSC) METAR

  • Weather conditions on Thu, 06 Oct 2022 15:50:00 +0000 (5:26 hr. ago):
  • Present conditions: Dry
  • Clouds: A few at 1372 meters
  • Visibility: Greater than 10 km
  • Wind: 230 degrees at 13 knots
  • Temperature: 18 celsius
  • Dew point: 9 celsius
  • Pressure: 1026 millibars
  • Remarks: None


Useful to know...

EGSC TAF

Cambridge Airport

TAF EGSC 061358Z 0615/0617 23012KT 9999 SCT045 PROB30 TEMPO 0615/0617 22015G25KT
Observation time: 7:18 hr. ago
Need help? Read our tutorial on how to read TAFs or read the parsed version below.

Parsed version of TAF for Cambridge Airport (EGSC)

  • From 06 October at 15:00 UTC, to day 06 of the month at 17:00 UTC
  • Clouds: Scattered at 1372 meters
  • Visibility: Greater than 10 km
  • Wind: 230 degrees at 12
  • Expected to arise temporarily, from 06 October at 15:00 UTC, to day 06 of the month at 17:00 UTC
    Probability of 30%
  • Wind: 220 degrees at 15